createdAt,value
2023-05-02T00:01:00.834Z,3.25
2023-05-02T00:03:28.008Z,3.83
2023-05-02T00:05:55.020Z,4.05
2023-05-02T00:08:21.879Z,3.53
2023-05-02T00:10:48.782Z,2.80
2023-05-02T00:13:15.668Z,3.35
2023-05-02T00:15:42.571Z,5.00
2023-05-02T00:18:10.949Z,3.15
2023-05-02T00:20:40.028Z,5.03
2023-05-02T00:23:06.925Z,3.45
2023-05-02T00:25:33.778Z,6.43
2023-05-02T00:28:00.651Z,4.60
2023-05-02T00:30:27.514Z,4.72
2023-05-02T00:32:54.482Z,2.60
2023-05-02T00:35:22.741Z,3.78
2023-05-02T00:37:49.605Z,4.03
2023-05-02T00:40:16.755Z,3.33
2023-05-02T00:42:43.642Z,2.42
2023-05-02T00:45:10.789Z,3.67
2023-05-02T00:47:37.710Z,3.22
2023-05-02T00:50:05.664Z,4.05
2023-05-02T00:52:33.910Z,3.47
2023-05-02T00:55:01.785Z,5.40
2023-05-02T00:57:28.680Z,3.33
2023-05-02T00:59:55.548Z,3.33
2023-05-02T01:02:31.647Z,2.47
2023-05-02T01:05:02.224Z,2.22
2023-05-02T01:08:11.484Z,2.83
2023-05-02T01:10:48.016Z,2.65
2023-05-02T01:13:19.348Z,2.78
2023-05-02T01:15:46.278Z,3.30
2023-05-02T01:18:13.763Z,3.05
2023-05-02T01:20:42.354Z,3.35
2023-05-02T01:23:14.329Z,2.78
2023-05-02T01:25:45.687Z,3.15
2023-05-02T01:28:18.825Z,2.10
2023-05-02T01:30:47.070Z,3.13
2023-05-02T01:33:14.990Z,3.33
2023-05-02T01:35:42.090Z,2.60
2023-05-02T01:38:08.948Z,3.20
2023-05-02T01:40:35.811Z,2.80
2023-05-02T01:43:02.677Z,3.65
2023-05-02T01:45:29.534Z,4.70
2023-05-02T01:47:57.869Z,3.35
2023-05-02T01:50:25.778Z,1.92
2023-05-02T01:52:53.509Z,1.98
2023-05-02T01:55:20.502Z,3.15
2023-05-02T01:57:47.632Z,2.00
2023-05-02T02:00:15.569Z,2.15
2023-05-02T02:02:42.794Z,2.33
2023-05-02T02:05:11.336Z,4.88
2023-05-02T02:07:38.202Z,6.18
2023-05-02T02:10:05.877Z,3.40
2023-05-02T02:12:36.690Z,4.47
2023-05-02T02:15:06.707Z,5.85
2023-05-02T02:17:38.228Z,3.58
2023-05-02T02:20:06.841Z,4.93
2023-05-02T02:22:36.932Z,4.68
2023-05-02T02:25:04.125Z,4.55
2023-05-02T02:27:30.985Z,5.38
2023-05-02T02:29:57.958Z,3.72
2023-05-02T02:32:25.001Z,7.70
2023-05-02T02:34:51.887Z,4.18
2023-05-02T02:37:19.926Z,2.85
2023-05-02T02:39:51.751Z,4.13
2023-05-02T02:42:22.910Z,5.72
2023-05-02T02:44:54.941Z,6.72
2023-05-02T02:47:24.041Z,4.60
2023-05-02T02:49:55.022Z,3.67
2023-05-02T02:52:24.690Z,4.03
2023-05-02T02:54:55.565Z,4.10
2023-05-02T02:57:26.655Z,4.60
2023-05-02T02:59:58.331Z,5.63
2023-05-02T03:02:28.096Z,6.55
2023-05-02T03:04:54.992Z,4.55
2023-05-02T03:07:21.890Z,4.45
2023-05-02T03:09:48.722Z,6.38
2023-05-02T03:12:16.937Z,8.60
2023-05-02T03:14:43.840Z,3.17
2023-05-02T03:17:10.745Z,4.07
2023-05-02T03:19:37.662Z,5.75
2023-05-02T03:22:04.549Z,3.83
2023-05-02T03:24:31.428Z,4.43
2023-05-02T03:26:58.520Z,6.32
2023-05-02T03:29:26.823Z,3.72
2023-05-02T03:31:53.727Z,2.85
2023-05-02T03:34:20.634Z,4.35
2023-05-02T03:36:47.509Z,4.78
2023-05-02T03:39:14.737Z,4.35
2023-05-02T03:41:41.592Z,4.22
2023-05-02T03:44:08.467Z,4.20
2023-05-02T03:46:36.753Z,6.85
2023-05-02T03:49:03.684Z,4.93
2023-05-02T03:51:30.535Z,6.60
2023-05-02T03:53:57.394Z,4.75
2023-05-02T03:56:24.341Z,4.13
2023-05-02T03:58:51.233Z,8.15
2023-05-02T04:01:18.290Z,4.03
2023-05-02T04:03:46.821Z,3.78
2023-05-02T04:06:13.779Z,3.78
2023-05-02T04:08:40.681Z,3.83
2023-05-02T04:11:07.555Z,5.50
2023-05-02T04:13:34.430Z,5.20
2023-05-02T04:16:01.298Z,5.28
2023-05-02T04:18:28.165Z,5.63
2023-05-02T04:20:56.376Z,5.03
2023-05-02T04:23:23.235Z,5.30
2023-05-02T04:25:53.006Z,4.63
2023-05-02T04:28:20.477Z,7.10
2023-05-02T04:30:47.469Z,5.10
2023-05-02T04:33:14.331Z,4.68
2023-05-02T04:35:41.275Z,3.65
2023-05-02T04:38:09.515Z,4.07
2023-05-02T04:40:36.360Z,2.97
2023-05-02T04:43:03.235Z,4.65
2023-05-02T04:45:30.122Z,3.60
2023-05-02T04:47:57.038Z,3.63
2023-05-02T04:50:23.939Z,5.18
2023-05-02T04:52:50.790Z,6.85
2023-05-02T04:55:19.283Z,5.13
2023-05-02T04:57:46.147Z,6.20
2023-05-02T05:00:13.857Z,5.22
2023-05-02T05:02:40.788Z,3.65
2023-05-02T05:05:08.202Z,3.63
2023-05-02T05:07:35.151Z,4.85
2023-05-02T05:10:02.293Z,3.83
2023-05-02T05:12:30.767Z,7.25
2023-05-02T05:14:57.608Z,4.35
2023-05-02T05:17:24.480Z,4.90
2023-05-02T05:19:51.362Z,4.18
2023-05-02T05:22:18.214Z,3.97
2023-05-02T05:24:51.591Z,2.83
2023-05-02T05:27:18.492Z,4.82
2023-05-02T05:29:46.754Z,6.20
2023-05-02T05:32:13.781Z,5.18
2023-05-02T05:34:40.822Z,4.00
2023-05-02T05:37:07.686Z,3.95
2023-05-02T05:39:34.556Z,4.88
2023-05-02T05:42:01.419Z,6.90
2023-05-02T05:44:28.351Z,6.47
2023-05-02T05:46:56.640Z,3.38
2023-05-02T05:49:23.619Z,6.13
2023-05-02T05:51:50.477Z,3.45
2023-05-02T05:54:17.572Z,5.18
2023-05-02T05:56:44.429Z,5.10
2023-05-02T05:59:11.278Z,6.45
2023-05-02T06:01:38.122Z,4.80
2023-05-02T06:04:06.545Z,3.47
2023-05-02T06:06:33.763Z,5.05
2023-05-02T06:09:00.738Z,6.05
2023-05-02T06:11:27.717Z,4.90
2023-05-02T06:13:54.589Z,5.95
2023-05-02T06:16:21.508Z,2.97
2023-05-02T06:18:50.117Z,5.05
2023-05-02T06:21:18.334Z,5.57
2023-05-02T06:23:45.211Z,4.93
2023-05-02T06:26:12.096Z,3.33
2023-05-02T06:28:38.991Z,2.25
2023-05-02T06:31:06.120Z,5.55
2023-05-02T06:33:33.548Z,4.80
2023-05-02T06:36:01.986Z,4.75
2023-05-02T06:38:30.607Z,5.45
2023-05-02T06:40:57.481Z,2.83
2023-05-02T06:43:24.321Z,4.10
2023-05-02T06:45:53.091Z,4.32
2023-05-02T06:48:19.996Z,3.97
2023-05-02T06:50:46.893Z,4.18
2023-05-02T06:53:13.765Z,4.25
2023-05-02T06:55:42.078Z,3.33
2023-05-02T06:58:08.945Z,4.55
2023-05-02T07:00:35.830Z,6.05
2023-05-02T07:03:02.790Z,3.63
2023-05-02T07:05:29.811Z,3.97
2023-05-02T07:07:56.650Z,3.33
2023-05-02T07:10:23.654Z,2.90
2023-05-02T07:12:51.939Z,1.73
2023-05-02T07:15:18.913Z,2.47
2023-05-02T07:17:45.836Z,4.50
2023-05-02T07:20:12.805Z,1.85
2023-05-02T07:22:39.679Z,3.33
2023-05-02T07:25:07.177Z,3.28
2023-05-02T07:27:34.074Z,2.85
2023-05-02T07:30:02.661Z,2.58
2023-05-02T07:32:31.108Z,1.98
2023-05-02T07:34:58.254Z,2.92
2023-05-02T07:37:25.229Z,2.35
2023-05-02T07:39:52.121Z,2.92
2023-05-02T07:42:18.964Z,2.08
2023-05-02T07:44:45.864Z,2.25
2023-05-02T07:47:14.132Z,3.50
2023-05-02T07:49:41.009Z,2.13
2023-05-02T07:52:08.046Z,3.90
2023-05-02T07:54:34.917Z,2.80
2023-05-02T07:57:01.754Z,2.17
2023-05-02T07:59:29.589Z,4.07
2023-05-02T08:01:56.484Z,2.03
2023-05-02T08:04:24.926Z,3.40
2023-05-02T08:06:52.082Z,2.42
2023-05-02T08:09:18.965Z,2.53
2023-05-02T08:11:45.846Z,3.08
2023-05-02T08:14:12.801Z,3.75
2023-05-02T08:16:39.757Z,3.45
2023-05-02T08:19:06.679Z,5.65
2023-05-02T08:21:34.919Z,3.03
2023-05-02T08:24:01.771Z,2.67
2023-05-02T08:26:28.634Z,4.15
2023-05-02T08:28:55.510Z,3.67
2023-05-02T08:31:22.481Z,5.13
2023-05-02T08:33:49.410Z,3.78
2023-05-02T08:36:16.883Z,3.50
2023-05-02T08:38:45.384Z,3.35
2023-05-02T08:41:12.378Z,4.03
2023-05-02T08:43:39.318Z,4.53
2023-05-02T08:46:06.212Z,4.82
2023-05-02T08:48:33.071Z,3.80
2023-05-02T08:50:59.963Z,4.70
2023-05-02T08:53:26.829Z,3.58
2023-05-02T08:55:55.094Z,4.25
2023-05-02T08:58:21.983Z,5.55
2023-05-02T09:00:48.914Z,3.90
2023-05-02T09:03:23.301Z,3.90
2023-05-02T09:05:52.514Z,4.78
2023-05-02T09:08:22.250Z,3.25
2023-05-02T09:10:49.276Z,5.25
2023-05-02T09:13:38.471Z,3.10
2023-05-02T09:16:06.580Z,4.22
2023-05-02T09:18:34.676Z,3.30
2023-05-02T09:21:04.120Z,7.95
2023-05-02T09:23:35.369Z,3.05
2023-05-02T09:26:02.314Z,3.42
2023-05-02T09:28:43.229Z,3.38
2023-05-02T09:31:10.756Z,4.25
2023-05-02T09:33:38.090Z,4.45
2023-05-02T09:36:05.545Z,2.85
2023-05-02T09:38:32.662Z,3.83
2023-05-02T09:40:59.846Z,3.58
2023-05-02T09:43:26.800Z,3.35
2023-05-02T09:45:58.767Z,2.42
2023-05-02T09:48:26.848Z,3.17
2023-05-02T09:50:53.725Z,4.28
2023-05-02T09:53:20.608Z,2.85
2023-05-02T09:55:47.504Z,3.78
2023-05-02T09:58:20.829Z,3.78
2023-05-02T10:00:47.764Z,5.15
2023-05-02T10:03:16.591Z,3.15
2023-05-02T10:05:44.368Z,3.10
2023-05-02T10:08:11.426Z,2.22
2023-05-02T10:10:38.880Z,3.15
2023-05-02T10:13:07.356Z,2.42
2023-05-02T10:15:34.814Z,2.38
2023-05-02T10:18:03.400Z,2.88
2023-05-02T10:20:34.885Z,3.92
2023-05-02T10:23:01.747Z,5.80
2023-05-02T10:25:28.895Z,2.28
2023-05-02T10:27:56.771Z,2.80
2023-05-02T10:30:23.780Z,5.45
2023-05-02T10:32:50.658Z,3.95
2023-05-02T10:35:17.524Z,2.15
2023-05-02T10:37:45.749Z,3.80
2023-05-02T10:40:12.891Z,3.30
2023-05-02T10:42:41.005Z,2.17
2023-05-02T10:45:11.750Z,2.63
2023-05-02T10:47:38.649Z,3.78
2023-05-02T10:50:06.396Z,2.47
2023-05-02T10:52:34.368Z,2.28
2023-05-02T10:55:19.171Z,2.00
2023-05-02T10:58:22.266Z,3.42
2023-05-02T11:00:49.155Z,3.60
2023-05-02T11:03:16.230Z,2.65
2023-05-02T11:06:06.959Z,2.00
2023-05-02T11:08:33.887Z,2.80
2023-05-02T11:11:39.267Z,2.38
2023-05-02T11:14:06.115Z,4.10
2023-05-02T11:17:06.400Z,2.25
2023-05-02T11:20:11.794Z,2.13
2023-05-02T11:22:38.657Z,3.28
2023-05-02T11:25:05.726Z,6.13
2023-05-02T11:27:42.945Z,3.28
2023-05-02T11:30:10.284Z,2.58
2023-05-02T11:33:11.817Z,3.25
2023-05-02T11:35:38.899Z,4.28
2023-05-02T11:38:10.282Z,2.22
2023-05-02T11:40:37.160Z,3.03
2023-05-02T11:43:13.927Z,4.18
2023-05-02T11:45:40.808Z,2.60
2023-05-02T11:48:08.186Z,2.67
2023-05-02T11:50:44.078Z,1.98
2023-05-02T11:53:16.572Z,2.97
2023-05-02T11:55:47.244Z,4.00
2023-05-02T11:58:16.397Z,2.10
2023-05-02T12:00:43.770Z,3.47
2023-05-02T12:03:18.894Z,2.42
2023-05-02T12:05:45.928Z,4.72
2023-05-02T12:08:21.512Z,2.75
2023-05-02T12:10:48.928Z,3.75
2023-05-02T12:13:17.165Z,2.20
2023-05-02T12:15:44.091Z,2.33
2023-05-02T12:18:11.050Z,3.08
2023-05-02T12:20:38.032Z,2.35
2023-05-02T12:23:04.965Z,2.28
2023-05-02T12:25:31.830Z,2.92
2023-05-02T12:27:59.763Z,2.10
2023-05-02T12:30:28.200Z,2.05
2023-05-02T12:32:58.027Z,1.95
2023-05-02T12:35:25.055Z,4.13
2023-05-02T12:37:52.675Z,1.88
2023-05-02T12:40:19.621Z,2.10
2023-05-02T12:42:58.567Z,2.13
2023-05-02T12:45:25.506Z,2.97
2023-05-02T12:47:53.831Z,2.63
2023-05-02T12:50:20.772Z,2.13
2023-05-02T12:52:49.031Z,2.47
2023-05-02T12:55:16.439Z,3.40
2023-05-02T12:57:43.346Z,3.00
2023-05-02T13:00:11.285Z,3.30
2023-05-02T13:02:38.191Z,4.32
2023-05-02T13:05:15.571Z,1.80
2023-05-02T13:07:42.434Z,2.95
2023-05-02T13:10:09.708Z,2.80
2023-05-02T13:12:36.661Z,2.00
2023-05-02T13:15:03.635Z,2.47
2023-05-02T13:17:30.711Z,2.22
2023-05-02T13:20:01.377Z,1.63
2023-05-02T13:22:30.481Z,1.60
2023-05-02T13:24:57.364Z,2.22
2023-05-02T13:27:24.352Z,2.47
2023-05-02T13:29:51.198Z,2.08
2023-05-02T13:32:18.173Z,1.77
2023-05-02T13:34:45.102Z,3.10
2023-05-02T13:37:11.982Z,1.80
2023-05-02T13:39:40.248Z,2.13
2023-05-02T13:42:07.150Z,2.80
2023-05-02T13:44:34.047Z,1.98
2023-05-02T13:47:00.933Z,1.70
2023-05-02T13:49:27.782Z,3.97
2023-05-02T13:51:54.668Z,1.40
2023-05-02T13:54:21.539Z,1.73
2023-05-02T13:56:49.777Z,1.90
2023-05-02T13:59:16.647Z,1.48
2023-05-02T14:01:43.530Z,2.25
2023-05-02T14:04:10.826Z,2.08
2023-05-02T14:06:37.997Z,2.55
2023-05-02T14:09:04.929Z,1.70
2023-05-02T14:11:31.806Z,1.95
2023-05-02T14:14:00.083Z,1.40
2023-05-02T14:16:27.029Z,1.48
2023-05-02T14:18:53.938Z,3.00
2023-05-02T14:21:20.790Z,3.03
2023-05-02T14:23:47.706Z,1.52
2023-05-02T14:26:14.575Z,1.65
2023-05-02T14:28:41.449Z,1.77
2023-05-02T14:31:09.754Z,1.67
2023-05-02T14:33:36.647Z,1.80
2023-05-02T14:36:04.010Z,2.13
2023-05-02T14:38:30.918Z,1.20
2023-05-02T14:40:57.781Z,4.05
2023-05-02T14:43:24.703Z,2.47
2023-05-02T14:45:51.551Z,1.88
2023-05-02T14:48:19.790Z,1.48
2023-05-02T14:50:46.666Z,1.55
2023-05-02T14:53:13.524Z,1.38
2023-05-02T14:55:40.402Z,1.98
2023-05-02T14:58:07.301Z,1.95
2023-05-02T15:00:34.382Z,1.13
2023-05-02T15:03:01.419Z,1.67
2023-05-02T15:05:30.084Z,2.45
2023-05-02T15:07:56.975Z,1.75
2023-05-02T15:10:23.848Z,2.13
2023-05-02T15:12:50.692Z,1.20
2023-05-02T15:15:17.622Z,1.20
2023-05-02T15:17:44.597Z,1.20
2023-05-02T15:20:12.678Z,1.10
2023-05-02T15:22:40.904Z,1.83
2023-05-02T15:25:08.877Z,1.33
2023-05-02T15:27:35.733Z,1.90
2023-05-02T15:30:03.337Z,1.08
2023-05-02T15:32:30.558Z,1.23
2023-05-02T15:34:57.468Z,1.73
2023-05-02T15:37:24.429Z,1.83
2023-05-02T15:39:52.657Z,1.55
2023-05-02T15:42:19.513Z,1.10
2023-05-02T15:44:46.374Z,1.15
2023-05-02T15:47:13.235Z,1.63
2023-05-02T15:49:40.592Z,0.75
2023-05-02T15:52:07.509Z,1.95
2023-05-02T15:54:34.393Z,0.88
2023-05-02T15:57:02.705Z,0.95
2023-05-02T15:59:29.586Z,1.05
2023-05-02T16:01:56.498Z,1.95
2023-05-02T16:04:23.424Z,0.93
2023-05-02T16:06:50.464Z,0.80
2023-05-02T16:09:17.449Z,1.45
2023-05-02T16:11:44.328Z,0.88
2023-05-02T16:14:12.566Z,1.60
2023-05-02T16:16:39.501Z,1.30
2023-05-02T16:19:06.437Z,1.42
2023-05-02T16:21:33.331Z,1.15
2023-05-02T16:24:00.183Z,3.13
2023-05-02T16:26:28.165Z,1.08
2023-05-02T16:28:56.407Z,1.40
2023-05-02T16:31:24.663Z,0.70
2023-05-02T16:33:51.532Z,0.77
2023-05-02T16:36:18.390Z,0.70
2023-05-02T16:38:45.253Z,0.75
2023-05-02T16:41:12.101Z,2.03
2023-05-02T16:43:38.968Z,0.88
2023-05-02T16:46:06.557Z,2.00
2023-05-02T16:48:35.313Z,1.55
2023-05-02T16:51:04.114Z,1.90
2023-05-02T16:53:31.523Z,1.52
2023-05-02T16:55:58.421Z,1.35
2023-05-02T16:58:25.293Z,1.23
2023-05-02T17:00:52.209Z,1.35
2023-05-02T17:03:19.143Z,0.73
2023-05-02T17:05:47.404Z,2.47
2023-05-02T17:08:14.271Z,0.63
2023-05-02T17:10:41.141Z,0.68
2023-05-02T17:13:08.003Z,1.70
2023-05-02T17:15:36.388Z,1.02
2023-05-02T17:18:03.434Z,2.15
2023-05-02T17:20:30.350Z,1.40
2023-05-02T17:22:58.997Z,1.48
2023-05-02T17:25:25.886Z,0.93
2023-05-02T17:27:52.816Z,2.30
2023-05-02T17:30:19.782Z,2.08
2023-05-02T17:32:46.780Z,1.27
2023-05-02T17:35:13.870Z,1.00
2023-05-02T17:37:40.750Z,1.02
2023-05-02T17:40:10.228Z,1.60
2023-05-02T17:42:37.080Z,1.35
2023-05-02T17:45:04.426Z,1.42
2023-05-02T17:47:31.360Z,0.73
2023-05-02T17:49:58.203Z,0.98
2023-05-02T17:52:25.088Z,3.72
2023-05-02T17:54:51.946Z,0.65
2023-05-02T17:57:20.161Z,1.48
2023-05-02T17:59:47.006Z,0.77
2023-05-02T18:02:13.860Z,1.00
2023-05-02T18:04:41.058Z,0.90
2023-05-02T18:07:08.657Z,1.38
2023-05-02T18:09:35.526Z,0.65
2023-05-02T18:12:02.368Z,2.55
2023-05-02T18:14:30.594Z,1.48
2023-05-02T18:16:57.468Z,0.93
2023-05-02T18:19:24.360Z,0.60
2023-05-02T18:21:51.239Z,0.70
2023-05-02T18:24:18.128Z,1.13
2023-05-02T18:26:45.013Z,2.22
2023-05-02T18:29:11.912Z,2.67
2023-05-02T18:31:40.526Z,0.73
2023-05-02T18:34:07.839Z,0.40
2023-05-02T18:36:34.712Z,0.70
2023-05-02T18:39:01.614Z,0.52
2023-05-02T18:41:28.500Z,1.10
2023-05-02T18:43:55.351Z,0.77
2023-05-02T18:46:22.267Z,0.63
2023-05-02T18:48:50.514Z,0.95
2023-05-02T18:51:17.385Z,1.10
2023-05-02T18:53:44.229Z,1.85
2023-05-02T18:56:14.432Z,1.80
2023-05-02T18:58:41.366Z,1.17
2023-05-02T19:01:14.610Z,0.50
2023-05-02T19:03:41.735Z,1.75
2023-05-02T19:06:10.068Z,1.02
2023-05-02T19:08:36.922Z,0.68
2023-05-02T19:11:03.765Z,1.30
2023-05-02T19:13:30.622Z,0.90
2023-05-02T19:15:57.487Z,1.52
2023-05-02T19:18:24.392Z,0.63
2023-05-02T19:20:51.256Z,0.98
2023-05-02T19:23:20.442Z,1.02
2023-05-02T19:25:47.752Z,1.40
2023-05-02T19:28:14.623Z,1.60
2023-05-02T19:30:41.736Z,0.82
2023-05-02T19:33:08.665Z,1.52
2023-05-02T19:35:35.911Z,1.27
2023-05-02T19:38:02.777Z,1.50
2023-05-02T19:40:31.374Z,1.30
2023-05-02T19:42:58.197Z,0.90
2023-05-02T19:45:25.098Z,2.50
2023-05-02T19:47:51.995Z,2.13
2023-05-02T19:50:19.004Z,2.30
2023-05-02T19:52:45.931Z,1.35
2023-05-02T19:55:12.790Z,2.00
2023-05-02T19:57:41.028Z,2.97
2023-05-02T20:00:08.867Z,1.30
2023-05-02T20:02:35.767Z,1.95
2023-05-02T20:05:02.701Z,2.80
2023-05-02T20:07:29.561Z,2.47
2023-05-02T20:09:56.465Z,3.53
2023-05-02T20:12:23.367Z,1.35
2023-05-02T20:14:51.601Z,1.92
2023-05-02T20:17:18.452Z,2.38
2023-05-02T20:19:45.327Z,1.20
2023-05-02T20:22:12.187Z,2.33
2023-05-02T20:24:39.045Z,3.00
2023-05-02T20:27:05.927Z,2.83
2023-05-02T20:29:32.853Z,2.45
2023-05-02T20:32:01.178Z,1.88
2023-05-02T20:34:28.146Z,1.60
2023-05-02T20:36:55.018Z,3.78
2023-05-02T20:39:21.995Z,2.15
2023-05-02T20:41:48.869Z,1.98
2023-05-02T20:44:15.731Z,2.20
2023-05-02T20:46:43.972Z,2.97
2023-05-02T20:49:12.187Z,2.85
2023-05-02T20:51:39.046Z,2.55
2023-05-02T20:54:05.963Z,2.85
2023-05-02T20:56:32.849Z,4.03
2023-05-02T20:58:59.696Z,2.15
2023-05-02T21:01:26.662Z,2.70
2023-05-02T21:03:53.687Z,3.15
2023-05-02T21:06:22.060Z,5.25
2023-05-02T21:08:48.942Z,2.72
2023-05-02T21:11:15.917Z,2.95
2023-05-02T21:13:42.970Z,1.17
2023-05-02T21:16:16.583Z,1.35
2023-05-02T21:18:43.543Z,1.83
2023-05-02T21:21:10.400Z,2.13
2023-05-02T21:23:38.670Z,2.28
2023-05-02T21:26:05.618Z,2.38
2023-05-02T21:28:32.461Z,2.60
2023-05-02T21:31:00.836Z,1.27
2023-05-02T21:33:27.716Z,2.75
2023-05-02T21:35:57.613Z,1.23
2023-05-02T21:38:25.109Z,1.17
2023-05-02T21:40:53.818Z,1.55
2023-05-02T21:43:20.742Z,0.98
2023-05-02T21:45:48.283Z,2.55
2023-05-02T21:48:15.481Z,1.60
2023-05-02T21:50:42.471Z,2.38
2023-05-02T21:53:09.428Z,1.27
2023-05-02T21:55:36.360Z,1.38
2023-05-02T21:58:04.607Z,3.05
2023-05-02T22:00:31.485Z,1.73
2023-05-02T22:02:58.499Z,2.05
2023-05-02T22:05:25.569Z,1.52
2023-05-02T22:07:52.465Z,1.30
2023-05-02T22:10:19.579Z,1.65
2023-05-02T22:12:46.442Z,1.40
2023-05-02T22:15:14.699Z,1.60
2023-05-02T22:17:41.584Z,1.92
2023-05-02T22:20:09.727Z,1.35
2023-05-02T22:22:36.618Z,1.90
2023-05-02T22:25:03.795Z,1.58
2023-05-02T22:27:30.627Z,2.35
2023-05-02T22:29:57.500Z,1.70
2023-05-02T22:32:25.781Z,2.22
2023-05-02T22:34:52.761Z,4.68
2023-05-02T22:37:19.593Z,2.05
2023-05-02T22:39:46.450Z,3.03
2023-05-02T22:42:13.334Z,2.47
2023-05-02T22:44:53.247Z,1.70
2023-05-02T22:47:21.153Z,2.22
2023-05-02T22:49:49.404Z,2.15
2023-05-02T22:52:16.270Z,2.60
2023-05-02T22:54:43.127Z,2.67
2023-05-02T22:57:09.999Z,1.48
2023-05-02T22:59:36.862Z,2.15
2023-05-02T23:02:03.838Z,2.45
2023-05-02T23:04:30.857Z,1.98
2023-05-02T23:06:59.078Z,2.38
2023-05-02T23:09:25.918Z,2.45
2023-05-02T23:11:52.767Z,3.35
2023-05-02T23:14:19.621Z,2.03
2023-05-02T23:16:46.491Z,3.28
2023-05-02T23:19:13.331Z,2.17
2023-05-02T23:21:40.183Z,2.70
2023-05-02T23:24:08.779Z,2.38
2023-05-02T23:26:35.655Z,3.08
2023-05-02T23:29:02.534Z,2.42
2023-05-02T23:31:29.477Z,4.78
2023-05-02T23:33:56.362Z,4.55
2023-05-02T23:36:23.291Z,4.57
2023-05-02T23:38:50.144Z,2.30
2023-05-02T23:41:18.371Z,3.00
2023-05-02T23:43:45.245Z,3.63
2023-05-02T23:46:12.133Z,2.42
2023-05-02T23:48:39.024Z,2.75
2023-05-02T23:51:06.003Z,3.20
2023-05-02T23:53:32.872Z,2.75
2023-05-02T23:55:59.763Z,3.38
2023-05-02T23:58:27.973Z,2.15
